createdAt,value
2023-02-09T00:03:53.775Z,100785.17
2023-02-09T00:08:58.144Z,100770.28
2023-02-09T00:14:02.334Z,100762.77
2023-02-09T00:19:06.202Z,100758.42
2023-02-09T00:23:50.302Z,100755.24
2023-02-09T00:28:54.866Z,100763.70
2023-02-09T00:33:58.875Z,100766.27
2023-02-09T00:38:43.314Z,100758.34
2023-02-09T00:43:47.611Z,100754.88
2023-02-09T00:48:51.925Z,100757.58
2023-02-09T00:53:56.793Z,100750.84
2023-02-09T00:58:44.662Z,100742.08
2023-02-09T01:03:29.097Z,100735.80
2023-02-09T01:07:54.642Z,100726.95
2023-02-09T01:12:40.608Z,100718.86
2023-02-09T01:21:51.674Z,100712.45
2023-02-09T01:26:12.651Z,100704.71
2023-02-09T01:30:36.644Z,100707.27
2023-02-09T01:35:40.682Z,100704.30
2023-02-09T01:40:09.940Z,100697.13
2023-02-09T01:45:16.516Z,100686.66
2023-02-09T01:50:04.543Z,100682.35
2023-02-09T01:54:37.017Z,100681.63
2023-02-09T01:59:12.229Z,100675.23
2023-02-09T02:03:38.255Z,100676.66
2023-02-09T02:08:02.749Z,100680.35
2023-02-09T02:12:47.068Z,100683.00
2023-02-09T02:17:37.288Z,100677.61
2023-02-09T02:22:27.858Z,100680.25
2023-02-09T02:27:20.232Z,100681.23
2023-02-09T02:32:39.008Z,100678.95
2023-02-09T02:37:48.706Z,100675.77
2023-02-09T02:42:37.850Z,100676.23
2023-02-09T02:47:15.263Z,100669.65
2023-02-09T02:51:55.875Z,100667.69
2023-02-09T02:56:19.658Z,100668.77
2023-02-09T03:01:06.267Z,100669.54
2023-02-09T03:05:51.146Z,100671.16
2023-02-09T03:11:04.363Z,100674.02
2023-02-09T03:15:49.051Z,100678.39
2023-02-09T03:20:55.522Z,100672.59
2023-02-09T03:25:48.256Z,100671.01
2023-02-09T03:30:13.847Z,100669.48
2023-02-09T03:34:39.574Z,100669.64
2023-02-09T03:39:23.856Z,100658.57
2023-02-09T03:44:02.583Z,100658.80
2023-02-09T03:48:46.939Z,100657.66
2023-02-09T03:53:27.834Z,100654.95
2023-02-09T03:57:51.672Z,100653.33
2023-02-09T04:02:15.660Z,100652.42
2023-02-09T04:06:59.967Z,100645.82
2023-02-09T04:11:44.923Z,100648.34
2023-02-09T04:16:09.113Z,100645.05
2023-02-09T04:21:12.896Z,100639.40
2023-02-09T04:25:36.915Z,100642.28
2023-02-09T04:30:01.404Z,100641.58
2023-02-09T04:34:25.201Z,100639.59
2023-02-09T04:39:09.268Z,100638.73
2023-02-09T04:43:53.545Z,100636.26
2023-02-09T04:48:17.533Z,100637.58
2023-02-09T04:52:41.639Z,100640.23
2023-02-09T04:57:32.457Z,100633.37
2023-02-09T05:02:00.842Z,100628.59
2023-02-09T05:06:45.659Z,100623.14
2023-02-09T05:11:18.331Z,100621.27
2023-02-09T05:15:42.406Z,100622.87
2023-02-09T05:20:07.540Z,100617.73
2023-02-09T05:25:11.365Z,100611.86
2023-02-09T05:29:44.210Z,100614.92
2023-02-09T05:34:09.411Z,100614.02
2023-02-09T05:38:53.656Z,100615.48
2023-02-09T05:43:33.973Z,100611.88
2023-02-09T05:47:58.839Z,100609.48
2023-02-09T05:52:31.199Z,100601.27
2023-02-09T05:57:00.094Z,100605.02
2023-02-09T06:01:32.524Z,100609.66
2023-02-09T06:06:17.095Z,100614.75
2023-02-09T06:10:41.478Z,100612.70
2023-02-09T06:15:18.090Z,100614.05
2023-02-09T06:19:42.003Z,100614.39
2023-02-09T06:24:05.899Z,100620.30
2023-02-09T06:28:50.213Z,100625.40
2023-02-09T06:33:54.174Z,100631.94
2023-02-09T06:38:58.107Z,100630.98
2023-02-09T06:44:01.696Z,100634.15
2023-02-09T06:48:49.603Z,100636.48
2023-02-09T06:53:53.534Z,100636.61
2023-02-09T06:58:34.025Z,100633.77
2023-02-09T07:03:23.332Z,100632.42
2023-02-09T07:08:11.576Z,100642.09
2023-02-09T07:12:55.612Z,100637.96
2023-02-09T07:17:43.817Z,100640.85
2023-02-09T07:22:31.951Z,100647.14
2023-02-09T07:27:16.437Z,100648.52
2023-02-09T07:32:21.444Z,100645.75
2023-02-09T07:37:25.247Z,100643.53
2023-02-09T07:42:30.232Z,100636.85
2023-02-09T07:47:34.953Z,100629.44
2023-02-09T07:52:39.018Z,100625.77
2023-02-09T07:57:42.964Z,100628.16
2023-02-09T08:02:27.310Z,100629.62
2023-02-09T08:07:14.550Z,100633.46
2023-02-09T08:11:58.901Z,100627.67
2023-02-09T08:17:02.624Z,100623.43
2023-02-09T08:21:45.618Z,100613.30
2023-02-09T08:26:31.492Z,100605.20
2023-02-09T08:30:55.849Z,100606.09
2023-02-09T08:36:01.457Z,100602.27
2023-02-09T08:40:27.674Z,100601.52
2023-02-09T08:45:07.965Z,100598.16
2023-02-09T08:49:31.926Z,100597.03
2023-02-09T08:53:56.267Z,100595.54
2023-02-09T08:58:13.544Z,100592.42
2023-02-09T09:02:37.915Z,100589.43
2023-02-09T09:07:02.021Z,100586.63
2023-02-09T09:11:26.110Z,100573.65
2023-02-09T09:16:10.313Z,100574.15
2023-02-09T09:20:54.674Z,100578.80
2023-02-09T09:25:39.454Z,100575.97
2023-02-09T09:30:43.374Z,100573.20
2023-02-09T09:35:47.375Z,100568.30
2023-02-09T09:40:51.118Z,100565.26
2023-02-09T09:45:39.169Z,100566.63
2023-02-09T09:50:43.113Z,100559.16
2023-02-09T09:55:28.092Z,100555.70
2023-02-09T10:00:15.718Z,100556.31
2023-02-09T10:04:39.693Z,100554.24
2023-02-09T10:10:04.736Z,100551.21
2023-02-09T10:15:08.544Z,100535.31
2023-02-09T10:20:18.506Z,100529.42
2023-02-09T10:25:13.867Z,100521.95
2023-02-09T10:30:18.409Z,100515.84
2023-02-09T10:35:05.546Z,100513.65
2023-02-09T10:39:56.656Z,100505.71
2023-02-09T10:45:03.288Z,100504.74
2023-02-09T10:49:27.543Z,100497.83
2023-02-09T10:54:38.252Z,100495.21
2023-02-09T10:59:42.367Z,100487.61
2023-02-09T11:04:08.303Z,100485.95
2023-02-09T11:09:01.086Z,100484.20
2023-02-09T11:14:05.000Z,100485.17
2023-02-09T11:19:17.685Z,100484.81
2023-02-09T11:24:07.289Z,100479.64
2023-02-09T11:28:34.515Z,100475.35
2023-02-09T11:33:05.952Z,100468.73
2023-02-09T11:37:49.910Z,100464.00
2023-02-09T11:43:06.139Z,100464.35
2023-02-09T11:48:12.885Z,100460.83
2023-02-09T11:52:45.177Z,100450.46
2023-02-09T11:57:30.201Z,100450.46
2023-02-09T12:03:01.651Z,100445.19
2023-02-09T12:07:52.538Z,100437.54
2023-02-09T12:12:21.972Z,100433.88
2023-02-09T12:17:21.765Z,100423.86
2023-02-09T12:22:33.420Z,100414.94
2023-02-09T12:27:27.595Z,100410.09
2023-02-09T12:31:54.654Z,100412.77
2023-02-09T12:36:20.323Z,100407.06
2023-02-09T12:41:24.624Z,100398.84
2023-02-09T12:46:31.795Z,100391.08
2023-02-09T12:51:25.028Z,100386.52
2023-02-09T12:56:17.365Z,100385.91
2023-02-09T13:01:21.221Z,100376.93
2023-02-09T13:06:27.868Z,100380.24
2023-02-09T13:11:37.884Z,100381.03
2023-02-09T13:16:25.953Z,100381.86
2023-02-09T13:21:35.336Z,100381.61
2023-02-09T13:26:31.667Z,100378.89
2023-02-09T13:31:35.554Z,100383.09
2023-02-09T13:36:23.803Z,100377.08
2023-02-09T13:41:19.028Z,100368.76
2023-02-09T13:46:31.958Z,100371.27
2023-02-09T13:51:15.776Z,100364.30
2023-02-09T13:56:22.186Z,100361.93
2023-02-09T14:01:31.916Z,100359.30
2023-02-09T14:06:47.934Z,100353.83
2023-02-09T14:12:00.998Z,100349.05
2023-02-09T14:17:14.815Z,100345.82
2023-02-09T14:22:17.851Z,100347.98
2023-02-09T14:27:16.182Z,100343.54
2023-02-09T14:32:33.200Z,100339.13
2023-02-09T14:37:34.872Z,100334.71
2023-02-09T14:42:51.158Z,100329.58
2023-02-09T14:47:47.344Z,100323.77
2023-02-09T14:52:13.093Z,100324.10
2023-02-09T14:56:58.801Z,100326.97
2023-02-09T15:01:24.016Z,100318.08
2023-02-09T15:06:09.588Z,100319.80
2023-02-09T15:10:59.565Z,100317.67
2023-02-09T15:16:03.572Z,100317.46
2023-02-09T15:21:07.561Z,100316.29
2023-02-09T15:26:16.815Z,100319.77
2023-02-09T15:31:01.329Z,100316.59
2023-02-09T15:36:07.349Z,100325.48
2023-02-09T15:41:15.672Z,100320.04
2023-02-09T15:46:01.577Z,100320.41
2023-02-09T15:50:28.474Z,100319.83
2023-02-09T15:54:57.645Z,100323.09
2023-02-09T15:59:23.273Z,100330.12
2023-02-09T16:04:15.076Z,100329.53
2023-02-09T16:08:57.737Z,100333.20
2023-02-09T16:13:41.609Z,100338.46
2023-02-09T16:18:25.487Z,100337.65
2023-02-09T16:23:20.262Z,100333.02
2023-02-09T16:27:53.569Z,100329.41
2023-02-09T16:32:38.026Z,100329.83
2023-02-09T16:37:05.707Z,100327.45
2023-02-09T16:42:09.569Z,100332.52
2023-02-09T16:47:13.387Z,100329.46
2023-02-09T16:52:17.372Z,100335.52
2023-02-09T16:57:02.832Z,100332.41
2023-02-09T17:02:12.806Z,100333.98
2023-02-09T17:07:17.868Z,100333.80
2023-02-09T17:12:21.665Z,100332.79
2023-02-09T17:17:25.502Z,100332.29
2023-02-09T17:22:32.187Z,100329.02
2023-02-09T17:27:16.650Z,100325.91
2023-02-09T17:32:26.651Z,100328.52
2023-02-09T17:37:31.793Z,100329.38
2023-02-09T17:42:15.880Z,100333.17
2023-02-09T17:47:19.856Z,100330.23
2023-02-09T17:52:24.775Z,100333.18
2023-02-09T17:57:10.303Z,100328.34
2023-02-09T18:02:23.212Z,100332.46
2023-02-09T18:07:33.186Z,100330.91
2023-02-09T18:12:43.045Z,100332.45
2023-02-09T18:17:45.111Z,100328.65
2023-02-09T18:22:49.114Z,100330.18
2023-02-09T18:27:53.879Z,100331.05
2023-02-09T18:32:38.693Z,100331.02
2023-02-09T18:37:42.746Z,100327.70
2023-02-09T18:42:48.328Z,100332.16
2023-02-09T18:47:52.352Z,100334.04
2023-02-09T18:52:35.130Z,100340.77
2023-02-09T18:57:17.982Z,100340.10
2023-02-09T19:02:22.437Z,100331.95
2023-02-09T19:07:27.447Z,100342.45
2023-02-09T19:12:31.406Z,100338.94
2023-02-09T19:17:35.491Z,100340.29
2023-02-09T19:22:39.498Z,100344.92
2023-02-09T19:27:43.369Z,100343.16
2023-02-09T19:32:47.232Z,100342.77
2023-02-09T19:37:31.886Z,100340.70
2023-02-09T19:42:35.792Z,100339.83
2023-02-09T19:47:19.857Z,100334.77
2023-02-09T19:52:06.703Z,100332.16
2023-02-09T19:57:10.639Z,100327.52
2023-02-09T20:01:56.144Z,100320.42
2023-02-09T20:07:00.129Z,100319.55
2023-02-09T20:12:10.028Z,100319.89
2023-02-09T20:17:14.251Z,100319.66
2023-02-09T20:22:18.181Z,100318.25
2023-02-09T20:27:24.061Z,100320.25
2023-02-09T20:32:29.629Z,100323.64
2023-02-09T20:37:33.556Z,100324.56
2023-02-09T20:42:10.681Z,100324.48
2023-02-09T20:47:17.198Z,100321.72
2023-02-09T20:52:21.099Z,100315.84
2023-02-09T20:57:09.225Z,100312.68
2023-02-09T21:01:53.475Z,100312.00
2023-02-09T21:06:38.247Z,100311.73
2023-02-09T21:11:42.112Z,100310.85
2023-02-09T21:16:46.155Z,100309.44
2023-02-09T21:21:26.563Z,100307.67
2023-02-09T21:25:50.559Z,100295.05
2023-02-09T21:30:54.456Z,100291.31
2023-02-09T21:35:58.047Z,100297.27
2023-02-09T21:41:02.005Z,100301.90
2023-02-09T21:46:07.109Z,100299.82
2023-02-09T21:51:11.063Z,100300.70
2023-02-09T21:56:10.978Z,100297.54
2023-02-09T22:00:55.670Z,100295.48
2023-02-09T22:05:59.461Z,100298.83
2023-02-09T22:10:24.483Z,100295.98
2023-02-09T22:14:40.808Z,100294.64
2023-02-09T22:19:04.805Z,100292.73
2023-02-09T22:24:03.877Z,100287.85
2023-02-09T22:28:48.331Z,100277.69
2023-02-09T22:33:12.359Z,100278.19
2023-02-09T22:38:16.292Z,100285.31
2023-02-09T22:43:20.153Z,100280.55
2023-02-09T22:48:04.043Z,100279.06
2023-02-09T22:52:30.061Z,100281.98
2023-02-09T22:57:14.992Z,100286.28
2023-02-09T23:02:18.830Z,100287.77
2023-02-09T23:07:22.903Z,100293.38
2023-02-09T23:12:08.944Z,100290.45
2023-02-09T23:16:58.541Z,100293.70
2023-02-09T23:22:03.132Z,100286.70
2023-02-09T23:26:44.233Z,100285.66
2023-02-09T23:31:32.137Z,100281.17
2023-02-09T23:36:35.786Z,100280.38
2023-02-09T23:41:20.965Z,100279.73
2023-02-09T23:46:05.133Z,100284.89
2023-02-09T23:51:08.685Z,100284.70
2023-02-09T23:56:04.161Z,100282.61
